sensor_id;sensor_type;location;lat;lon;timestamp;P1;durP1;ratioP1;P2;durP2;ratioP2
27025;SDS011;14565;48.626;8.978;2023-12-20T00:00:58;1.50;;;0.82;;
27025;SDS011;14565;48.626;8.978;2023-12-20T00:03:23;1.90;;;0.80;;
27025;SDS011;14565;48.626;8.978;2023-12-20T00:05:49;1.38;;;0.73;;
27025;SDS011;14565;48.626;8.978;2023-12-20T00:08:15;1.40;;;0.73;;
27025;SDS011;14565;48.626;8.978;2023-12-20T00:10:41;1.45;;;0.70;;
27025;SDS011;14565;48.626;8.978;2023-12-20T00:13:07;0.60;;;0.52;;
27025;SDS011;14565;48.626;8.978;2023-12-20T00:15:34;1.80;;;0.90;;
27025;SDS011;14565;48.626;8.978;2023-12-20T00:18:00;2.55;;;0.90;;
27025;SDS011;14565;48.626;8.978;2023-12-20T00:20:26;1.83;;;1.15;;
27025;SDS011;14565;48.626;8.978;2023-12-20T00:22:53;1.50;;;1.00;;
27025;SDS011;14565;48.626;8.978;2023-12-20T00:25:23;1.40;;;0.90;;
27025;SDS011;14565;48.626;8.978;2023-12-20T00:27:49;1.30;;;0.90;;
27025;SDS011;14565;48.626;8.978;2023-12-20T00:30:14;5.35;;;1.50;;
27025;SDS011;14565;48.626;8.978;2023-12-20T00:32:40;1.35;;;0.80;;
27025;SDS011;14565;48.626;8.978;2023-12-20T00:35:11;2.15;;;0.80;;
27025;SDS011;14565;48.626;8.978;2023-12-20T00:37:40;2.35;;;0.85;;
27025;SDS011;14565;48.626;8.978;2023-12-20T00:40:07;1.05;;;0.60;;
27025;SDS011;14565;48.626;8.978;2023-12-20T00:42:33;0.60;;;0.50;;
27025;SDS011;14565;48.626;8.978;2023-12-20T00:44:59;1.45;;;0.80;;
27025;SDS011;14565;48.626;8.978;2023-12-20T00:47:25;1.02;;;0.80;;
27025;SDS011;14565;48.626;8.978;2023-12-20T00:49:51;2.15;;;0.63;;
27025;SDS011;14565;48.626;8.978;2023-12-20T00:52:17;1.35;;;0.77;;
27025;SDS011;14565;48.626;8.978;2023-12-20T00:54:44;0.82;;;0.63;;
27025;SDS011;14565;48.626;8.978;2023-12-20T00:57:09;1.42;;;0.65;;
27025;SDS011;14565;48.626;8.978;2023-12-20T00:59:35;1.65;;;0.80;;
27025;SDS011;14565;48.626;8.978;2023-12-20T01:02:01;1.13;;;0.65;;
27025;SDS011;14565;48.626;8.978;2023-12-20T01:04:27;1.73;;;0.70;;
27025;SDS011;14565;48.626;8.978;2023-12-20T01:06:53;2.13;;;0.82;;
27025;SDS011;14565;48.626;8.978;2023-12-20T01:09:19;2.20;;;1.10;;
27025;SDS011;14565;48.626;8.978;2023-12-20T01:11:44;1.77;;;1.00;;
27025;SDS011;14565;48.626;8.978;2023-12-20T01:14:13;1.42;;;1.00;;
27025;SDS011;14565;48.626;8.978;2023-12-20T01:16:38;1.70;;;1.10;;
27025;SDS011;14565;48.626;8.978;2023-12-20T01:19:04;1.45;;;1.02;;
27025;SDS011;14565;48.626;8.978;2023-12-20T01:21:30;4.40;;;0.95;;
27025;SDS011;14565;48.626;8.978;2023-12-20T01:23:55;2.35;;;1.17;;
27025;SDS011;14565;48.626;8.978;2023-12-20T01:26:21;1.70;;;1.10;;
27025;SDS011;14565;48.626;8.978;2023-12-20T01:28:46;2.72;;;1.17;;
27025;SDS011;14565;48.626;8.978;2023-12-20T01:31:12;1.58;;;1.02;;
27025;SDS011;14565;48.626;8.978;2023-12-20T01:33:38;2.05;;;1.40;;
27025;SDS011;14565;48.626;8.978;2023-12-20T01:36:04;2.05;;;1.35;;
27025;SDS011;14565;48.626;8.978;2023-12-20T01:38:30;4.90;;;1.08;;
27025;SDS011;14565;48.626;8.978;2023-12-20T01:40:55;1.40;;;1.20;;
27025;SDS011;14565;48.626;8.978;2023-12-20T01:43:21;1.65;;;1.20;;
27025;SDS011;14565;48.626;8.978;2023-12-20T01:45:47;2.40;;;1.33;;
27025;SDS011;14565;48.626;8.978;2023-12-20T01:48:13;1.73;;;0.88;;
27025;SDS011;14565;48.626;8.978;2023-12-20T01:50:41;1.00;;;0.90;;
27025;SDS011;14565;48.626;8.978;2023-12-20T01:53:10;1.17;;;0.80;;
27025;SDS011;14565;48.626;8.978;2023-12-20T01:55:38;0.90;;;0.70;;
27025;SDS011;14565;48.626;8.978;2023-12-20T01:58:05;1.10;;;0.90;;
27025;SDS011;14565;48.626;8.978;2023-12-20T02:00:32;1.05;;;0.77;;
27025;SDS011;14565;48.626;8.978;2023-12-20T02:03:00;1.17;;;0.70;;
27025;SDS011;14565;48.626;8.978;2023-12-20T02:05:27;1.13;;;0.70;;
27025;SDS011;14565;48.626;8.978;2023-12-20T02:07:55;1.02;;;0.60;;
27025;SDS011;14565;48.626;8.978;2023-12-20T02:10:21;1.40;;;0.77;;
27025;SDS011;14565;48.626;8.978;2023-12-20T02:12:48;1.85;;;0.88;;
27025;SDS011;14565;48.626;8.978;2023-12-20T02:15:13;0.88;;;0.60;;
27025;SDS011;14565;48.626;8.978;2023-12-20T02:17:39;0.88;;;0.57;;
27025;SDS011;14565;48.626;8.978;2023-12-20T02:20:05;0.93;;;0.63;;
27025;SDS011;14565;48.626;8.978;2023-12-20T02:22:31;1.20;;;0.50;;
27025;SDS011;14565;48.626;8.978;2023-12-20T02:24:57;1.25;;;0.70;;
27025;SDS011;14565;48.626;8.978;2023-12-20T02:27:23;2.08;;;0.70;;
27025;SDS011;14565;48.626;8.978;2023-12-20T02:29:49;1.60;;;0.60;;
27025;SDS011;14565;48.626;8.978;2023-12-20T02:32:19;1.52;;;0.68;;
27025;SDS011;14565;48.626;8.978;2023-12-20T02:34:46;0.60;;;0.50;;
27025;SDS011;14565;48.626;8.978;2023-12-20T02:37:12;1.02;;;0.50;;
27025;SDS011;14565;48.626;8.978;2023-12-20T02:39:38;0.60;;;0.50;;
27025;SDS011;14565;48.626;8.978;2023-12-20T02:42:04;0.47;;;0.40;;
27025;SDS011;14565;48.626;8.978;2023-12-20T02:44:29;1.08;;;0.50;;
27025;SDS011;14565;48.626;8.978;2023-12-20T02:46:56;0.40;;;0.40;;
27025;SDS011;14565;48.626;8.978;2023-12-20T02:49:22;0.60;;;0.50;;
27025;SDS011;14565;48.626;8.978;2023-12-20T02:51:48;0.60;;;0.30;;
27025;SDS011;14565;48.626;8.978;2023-12-20T02:54:13;0.30;;;0.30;;
27025;SDS011;14565;48.626;8.978;2023-12-20T02:56:39;0.45;;;0.40;;
27025;SDS011;14565;48.626;8.978;2023-12-20T02:59:05;1.38;;;0.30;;
27025;SDS011;14565;48.626;8.978;2023-12-20T03:01:31;0.20;;;0.20;;
27025;SDS011;14565;48.626;8.978;2023-12-20T03:03:57;0.32;;;0.30;;
27025;SDS011;14565;48.626;8.978;2023-12-20T03:06:23;0.80;;;0.20;;
27025;SDS011;14565;48.626;8.978;2023-12-20T03:08:49;0.30;;;0.30;;
27025;SDS011;14565;48.626;8.978;2023-12-20T03:11:16;1.65;;;0.30;;
27025;SDS011;14565;48.626;8.978;2023-12-20T03:13:41;0.20;;;0.20;;
27025;SDS011;14565;48.626;8.978;2023-12-20T03:16:10;0.20;;;0.20;;
27025;SDS011;14565;48.626;8.978;2023-12-20T03:18:37;0.50;;;0.40;;
27025;SDS011;14565;48.626;8.978;2023-12-20T03:21:03;1.67;;;0.30;;
27025;SDS011;14565;48.626;8.978;2023-12-20T03:23:29;1.45;;;0.20;;
27025;SDS011;14565;48.626;8.978;2023-12-20T03:25:57;0.65;;;0.30;;
27025;SDS011;14565;48.626;8.978;2023-12-20T03:28:23;0.30;;;0.30;;
27025;SDS011;14565;48.626;8.978;2023-12-20T03:30:49;0.60;;;0.30;;
27025;SDS011;14565;48.626;8.978;2023-12-20T03:33:14;0.47;;;0.30;;
27025;SDS011;14565;48.626;8.978;2023-12-20T03:35:41;0.47;;;0.30;;
27025;SDS011;14565;48.626;8.978;2023-12-20T03:38:07;2.20;;;0.50;;
27025;SDS011;14565;48.626;8.978;2023-12-20T03:40:32;0.80;;;0.40;;
27025;SDS011;14565;48.626;8.978;2023-12-20T03:42:58;0.82;;;0.40;;
27025;SDS011;14565;48.626;8.978;2023-12-20T03:45:24;0.50;;;0.30;;
27025;SDS011;14565;48.626;8.978;2023-12-20T03:47:51;1.40;;;0.55;;
27025;SDS011;14565;48.626;8.978;2023-12-20T03:50:24;1.05;;;0.50;;
27025;SDS011;14565;48.626;8.978;2023-12-20T03:52:54;2.67;;;0.70;;
27025;SDS011;14565;48.626;8.978;2023-12-20T03:55:19;1.42;;;0.50;;
27025;SDS011;14565;48.626;8.978;2023-12-20T03:57:45;2.47;;;0.45;;
27025;SDS011;14565;48.626;8.978;2023-12-20T04:00:11;0.25;;;0.22;;
27025;SDS011;14565;48.626;8.978;2023-12-20T04:02:37;0.85;;;0.20;;
27025;SDS011;14565;48.626;8.978;2023-12-20T04:05:03;1.30;;;0.20;;
27025;SDS011;14565;48.626;8.978;2023-12-20T04:07:30;0.40;;;0.30;;
27025;SDS011;14565;48.626;8.978;2023-12-20T04:09:56;3.17;;;0.20;;
27025;SDS011;14565;48.626;8.978;2023-12-20T04:12:21;0.20;;;0.20;;
27025;SDS011;14565;48.626;8.978;2023-12-20T04:14:47;0.85;;;0.20;;
27025;SDS011;14565;48.626;8.978;2023-12-20T04:17:14;0.20;;;0.20;;
27025;SDS011;14565;48.626;8.978;2023-12-20T04:19:41;0.45;;;0.30;;
27025;SDS011;14565;48.626;8.978;2023-12-20T04:22:07;1.02;;;0.20;;
27025;SDS011;14565;48.626;8.978;2023-12-20T04:24:32;0.38;;;0.20;;
27025;SDS011;14565;48.626;8.978;2023-12-20T04:26:58;0.68;;;0.32;;
27025;SDS011;14565;48.626;8.978;2023-12-20T04:29:23;0.20;;;0.20;;
27025;SDS011;14565;48.626;8.978;2023-12-20T04:31:49;0.50;;;0.20;;
27025;SDS011;14565;48.626;8.978;2023-12-20T04:34:16;0.30;;;0.20;;
27025;SDS011;14565;48.626;8.978;2023-12-20T04:36:43;0.20;;;0.20;;
27025;SDS011;14565;48.626;8.978;2023-12-20T04:39:11;0.30;;;0.15;;
27025;SDS011;14565;48.626;8.978;2023-12-20T04:41:38;0.60;;;0.20;;
27025;SDS011;14565;48.626;8.978;2023-12-20T04:44:03;0.20;;;0.20;;
27025;SDS011;14565;48.626;8.978;2023-12-20T04:46:29;0.50;;;0.30;;
27025;SDS011;14565;48.626;8.978;2023-12-20T04:48:55;0.43;;;0.30;;
27025;SDS011;14565;48.626;8.978;2023-12-20T04:51:20;0.17;;;0.17;;
27025;SDS011;14565;48.626;8.978;2023-12-20T04:53:46;0.20;;;0.20;;
27025;SDS011;14565;48.626;8.978;2023-12-20T04:56:12;0.30;;;0.30;;
27025;SDS011;14565;48.626;8.978;2023-12-20T04:58:38;1.75;;;0.90;;
27025;SDS011;14565;48.626;8.978;2023-12-20T05:01:05;2.55;;;1.42;;
27025;SDS011;14565;48.626;8.978;2023-12-20T05:03:32;0.30;;;0.30;;
27025;SDS011;14565;48.626;8.978;2023-12-20T05:05:58;1.48;;;0.20;;
27025;SDS011;14565;48.626;8.978;2023-12-20T05:08:23;0.70;;;0.20;;
27025;SDS011;14565;48.626;8.978;2023-12-20T05:10:50;0.20;;;0.20;;
27025;SDS011;14565;48.626;8.978;2023-12-20T05:13:16;0.20;;;0.20;;
27025;SDS011;14565;48.626;8.978;2023-12-20T05:15:42;0.20;;;0.20;;
27025;SDS011;14565;48.626;8.978;2023-12-20T05:18:07;0.30;;;0.30;;
27025;SDS011;14565;48.626;8.978;2023-12-20T05:20:33;0.30;;;0.30;;
27025;SDS011;14565;48.626;8.978;2023-12-20T05:22:59;0.35;;;0.30;;
27025;SDS011;14565;48.626;8.978;2023-12-20T05:25:24;2.20;;;0.60;;
27025;SDS011;14565;48.626;8.978;2023-12-20T05:27:50;0.98;;;0.70;;
27025;SDS011;14565;48.626;8.978;2023-12-20T05:30:16;0.73;;;0.30;;
27025;SDS011;14565;48.626;8.978;2023-12-20T05:32:41;0.20;;;0.20;;
27025;SDS011;14565;48.626;8.978;2023-12-20T05:35:07;0.20;;;0.20;;
27025;SDS011;14565;48.626;8.978;2023-12-20T05:37:33;0.20;;;0.20;;
27025;SDS011;14565;48.626;8.978;2023-12-20T05:39:58;0.20;;;0.20;;
27025;SDS011;14565;48.626;8.978;2023-12-20T05:42:24;0.20;;;0.20;;
27025;SDS011;14565;48.626;8.978;2023-12-20T05:44:50;0.20;;;0.20;;
27025;SDS011;14565;48.626;8.978;2023-12-20T05:47:15;0.43;;;0.20;;
27025;SDS011;14565;48.626;8.978;2023-12-20T05:49:41;0.65;;;0.30;;
27025;SDS011;14565;48.626;8.978;2023-12-20T05:52:08;1.50;;;0.20;;
27025;SDS011;14565;48.626;8.978;2023-12-20T05:54:34;0.22;;;0.22;;
27025;SDS011;14565;48.626;8.978;2023-12-20T05:56:59;0.63;;;0.30;;
27025;SDS011;14565;48.626;8.978;2023-12-20T05:59:25;0.20;;;0.20;;
27025;SDS011;14565;48.626;8.978;2023-12-20T06:01:51;0.30;;;0.30;;
27025;SDS011;14565;48.626;8.978;2023-12-20T06:04:17;0.40;;;0.30;;
27025;SDS011;14565;48.626;8.978;2023-12-20T06:06:43;0.90;;;0.30;;
27025;SDS011;14565;48.626;8.978;2023-12-20T06:09:09;0.30;;;0.30;;
27025;SDS011;14565;48.626;8.978;2023-12-20T06:11:35;0.25;;;0.25;;
27025;SDS011;14565;48.626;8.978;2023-12-20T06:14:01;0.98;;;0.30;;
27025;SDS011;14565;48.626;8.978;2023-12-20T06:16:26;0.85;;;0.40;;
27025;SDS011;14565;48.626;8.978;2023-12-20T06:18:52;0.55;;;0.25;;
27025;SDS011;14565;48.626;8.978;2023-12-20T06:21:19;0.30;;;0.30;;
27025;SDS011;14565;48.626;8.978;2023-12-20T06:23:45;0.30;;;0.30;;
27025;SDS011;14565;48.626;8.978;2023-12-20T06:26:10;0.88;;;0.30;;
27025;SDS011;14565;48.626;8.978;2023-12-20T06:28:36;0.22;;;0.22;;
27025;SDS011;14565;48.626;8.978;2023-12-20T06:31:02;0.32;;;0.30;;
27025;SDS011;14565;48.626;8.978;2023-12-20T06:33:28;1.27;;;0.50;;
27025;SDS011;14565;48.626;8.978;2023-12-20T06:35:56;1.77;;;0.40;;
27025;SDS011;14565;48.626;8.978;2023-12-20T06:38:22;0.20;;;0.20;;
27025;SDS011;14565;48.626;8.978;2023-12-20T06:40:48;0.40;;;0.40;;
27025;SDS011;14565;48.626;8.978;2023-12-20T06:43:13;1.20;;;0.45;;
27025;SDS011;14565;48.626;8.978;2023-12-20T06:45:39;1.45;;;0.65;;
27025;SDS011;14565;48.626;8.978;2023-12-20T06:48:05;0.77;;;0.65;;
27025;SDS011;14565;48.626;8.978;2023-12-20T06:50:31;1.00;;;0.65;;
27025;SDS011;14565;48.626;8.978;2023-12-20T06:52:57;2.60;;;0.50;;
27025;SDS011;14565;48.626;8.978;2023-12-20T06:55:23;0.77;;;0.40;;
27025;SDS011;14565;48.626;8.978;2023-12-20T06:57:48;0.52;;;0.40;;
27025;SDS011;14565;48.626;8.978;2023-12-20T07:00:14;0.40;;;0.40;;
27025;SDS011;14565;48.626;8.978;2023-12-20T07:02:41;0.80;;;0.40;;
27025;SDS011;14565;48.626;8.978;2023-12-20T07:05:06;1.25;;;0.50;;
27025;SDS011;14565;48.626;8.978;2023-12-20T07:07:32;0.93;;;0.60;;
27025;SDS011;14565;48.626;8.978;2023-12-20T07:09:58;0.82;;;0.60;;
27025;SDS011;14565;48.626;8.978;2023-12-20T07:12:24;1.30;;;0.60;;
27025;SDS011;14565;48.626;8.978;2023-12-20T07:14:50;1.92;;;0.70;;
27025;SDS011;14565;48.626;8.978;2023-12-20T07:17:16;0.88;;;0.60;;
27025;SDS011;14565;48.626;8.978;2023-12-20T07:19:41;3.15;;;1.60;;
27025;SDS011;14565;48.626;8.978;2023-12-20T07:22:08;0.70;;;0.60;;
27025;SDS011;14565;48.626;8.978;2023-12-20T07:24:34;0.68;;;0.50;;
27025;SDS011;14565;48.626;8.978;2023-12-20T07:26:59;1.20;;;0.80;;
27025;SDS011;14565;48.626;8.978;2023-12-20T07:29:26;1.27;;;0.70;;
27025;SDS011;14565;48.626;8.978;2023-12-20T07:31:52;1.13;;;0.80;;
27025;SDS011;14565;48.626;8.978;2023-12-20T07:34:20;1.58;;;1.00;;
27025;SDS011;14565;48.626;8.978;2023-12-20T07:36:46;0.70;;;0.60;;
27025;SDS011;14565;48.626;8.978;2023-12-20T07:39:12;0.55;;;0.55;;
27025;SDS011;14565;48.626;8.978;2023-12-20T07:41:37;1.38;;;0.90;;
27025;SDS011;14565;48.626;8.978;2023-12-20T07:44:06;0.87;;;0.67;;
27025;SDS011;14565;48.626;8.978;2023-12-20T07:46:32;1.77;;;0.82;;
27025;SDS011;14565;48.626;8.978;2023-12-20T07:48:59;1.88;;;1.00;;
27025;SDS011;14565;48.626;8.978;2023-12-20T07:51:24;3.00;;;1.27;;
27025;SDS011;14565;48.626;8.978;2023-12-20T07:53:51;2.30;;;1.02;;
27025;SDS011;14565;48.626;8.978;2023-12-20T07:56:18;1.75;;;1.05;;
27025;SDS011;14565;48.626;8.978;2023-12-20T07:58:45;3.47;;;1.80;;
27025;SDS011;14565;48.626;8.978;2023-12-20T08:01:13;1.73;;;1.20;;
27025;SDS011;14565;48.626;8.978;2023-12-20T08:03:41;1.92;;;1.25;;
27025;SDS011;14565;48.626;8.978;2023-12-20T08:06:07;2.05;;;1.65;;
27025;SDS011;14565;48.626;8.978;2023-12-20T08:08:33;2.50;;;1.48;;
27025;SDS011;14565;48.626;8.978;2023-12-20T08:10:59;4.57;;;2.20;;
27025;SDS011;14565;48.626;8.978;2023-12-20T08:13:25;3.28;;;2.22;;
27025;SDS011;14565;48.626;8.978;2023-12-20T08:15:53;2.72;;;2.30;;
27025;SDS011;14565;48.626;8.978;2023-12-20T08:18:19;3.78;;;2.30;;
27025;SDS011;14565;48.626;8.978;2023-12-20T08:20:44;5.63;;;2.30;;
27025;SDS011;14565;48.626;8.978;2023-12-20T08:23:10;3.05;;;2.38;;
27025;SDS011;14565;48.626;8.978;2023-12-20T08:25:35;2.97;;;1.90;;
27025;SDS011;14565;48.626;8.978;2023-12-20T08:28:04;2.60;;;2.33;;
27025;SDS011;14565;48.626;8.978;2023-12-20T08:30:30;6.10;;;2.40;;
27025;SDS011;14565;48.626;8.978;2023-12-20T08:32:56;4.90;;;2.70;;
27025;SDS011;14565;48.626;8.978;2023-12-20T08:35:22;4.50;;;2.83;;
27025;SDS011;14565;48.626;8.978;2023-12-20T08:37:49;4.57;;;3.08;;
27025;SDS011;14565;48.626;8.978;2023-12-20T08:40:15;9.02;;;4.25;;
27025;SDS011;14565;48.626;8.978;2023-12-20T08:42:40;4.93;;;3.00;;
27025;SDS011;14565;48.626;8.978;2023-12-20T08:45:07;2.63;;;1.65;;
27025;SDS011;14565;48.626;8.978;2023-12-20T08:47:33;2.00;;;1.80;;
27025;SDS011;14565;48.626;8.978;2023-12-20T08:49:58;3.70;;;2.08;;
27025;SDS011;14565;48.626;8.978;2023-12-20T08:52:25;2.30;;;1.70;;
27025;SDS011;14565;48.626;8.978;2023-12-20T08:54:52;2.83;;;1.90;;
27025;SDS011;14565;48.626;8.978;2023-12-20T08:57:21;3.13;;;1.77;;
27025;SDS011;14565;48.626;8.978;2023-12-20T08:59:48;6.40;;;1.90;;
27025;SDS011;14565;48.626;8.978;2023-12-20T09:02:16;3.67;;;1.35;;
27025;SDS011;14565;48.626;8.978;2023-12-20T09:04:41;5.00;;;2.67;;
27025;SDS011;14565;48.626;8.978;2023-12-20T09:07:20;5.50;;;1.52;;
27025;SDS011;14565;48.626;8.978;2023-12-20T09:09:47;4.50;;;1.25;;
27025;SDS011;14565;48.626;8.978;2023-12-20T09:12:12;6.93;;;2.30;;
27025;SDS011;14565;48.626;8.978;2023-12-20T09:14:38;4.18;;;1.67;;
27025;SDS011;14565;48.626;8.978;2023-12-20T09:17:04;4.15;;;1.80;;
27025;SDS011;14565;48.626;8.978;2023-12-20T09:19:29;4.90;;;1.77;;
27025;SDS011;14565;48.626;8.978;2023-12-20T09:21:55;3.80;;;1.60;;
27025;SDS011;14565;48.626;8.978;2023-12-20T09:24:21;3.78;;;1.73;;
27025;SDS011;14565;48.626;8.978;2023-12-20T09:26:47;3.22;;;1.80;;
27025;SDS011;14565;48.626;8.978;2023-12-20T09:29:12;5.80;;;1.50;;
27025;SDS011;14565;48.626;8.978;2023-12-20T09:31:40;2.80;;;1.30;;
27025;SDS011;14565;48.626;8.978;2023-12-20T09:34:08;4.03;;;1.38;;
27025;SDS011;14565;48.626;8.978;2023-12-20T09:36:34;4.20;;;1.17;;
27025;SDS011;14565;48.626;8.978;2023-12-20T09:39:01;6.47;;;1.20;;
27025;SDS011;14565;48.626;8.978;2023-12-20T09:41:27;1.42;;;0.98;;
27025;SDS011;14565;48.626;8.978;2023-12-20T09:43:57;8.38;;;1.25;;
27025;SDS011;14565;48.626;8.978;2023-12-20T09:46:27;1.63;;;0.98;;
27025;SDS011;14565;48.626;8.978;2023-12-20T09:48:58;4.97;;;1.10;;
27025;SDS011;14565;48.626;8.978;2023-12-20T09:51:28;7.63;;;1.13;;
27025;SDS011;14565;48.626;8.978;2023-12-20T09:53:55;2.67;;;0.80;;
27025;SDS011;14565;48.626;8.978;2023-12-20T09:56:22;5.85;;;1.30;;
27025;SDS011;14565;48.626;8.978;2023-12-20T09:58:49;2.53;;;1.23;;
27025;SDS011;14565;48.626;8.978;2023-12-20T10:01:15;6.53;;;2.17;;
27025;SDS011;14565;48.626;8.978;2023-12-20T10:03:42;4.18;;;1.38;;
27025;SDS011;14565;48.626;8.978;2023-12-20T10:06:07;4.15;;;1.15;;
27025;SDS011;14565;48.626;8.978;2023-12-20T10:08:34;2.53;;;1.25;;
27025;SDS011;14565;48.626;8.978;2023-12-20T10:11:00;5.70;;;1.40;;
27025;SDS011;14565;48.626;8.978;2023-12-20T10:13:28;3.88;;;1.20;;
27025;SDS011;14565;48.626;8.978;2023-12-20T10:15:55;8.60;;;1.52;;
27025;SDS011;14565;48.626;8.978;2023-12-20T10:18:22;4.32;;;1.55;;
27025;SDS011;14565;48.626;8.978;2023-12-20T10:20:48;8.15;;;1.40;;
27025;SDS011;14565;48.626;8.978;2023-12-20T10:23:15;4.30;;;1.08;;
27025;SDS011;14565;48.626;8.978;2023-12-20T10:25:41;3.38;;;1.00;;
27025;SDS011;14565;48.626;8.978;2023-12-20T10:28:09;4.32;;;1.10;;
27025;SDS011;14565;48.626;8.978;2023-12-20T10:30:35;4.35;;;0.95;;
27025;SDS011;14565;48.626;8.978;2023-12-20T10:33:02;3.90;;;1.15;;
27025;SDS011;14565;48.626;8.978;2023-12-20T10:35:30;3.35;;;1.65;;
27025;SDS011;14565;48.626;8.978;2023-12-20T10:37:56;5.45;;;1.45;;
27025;SDS011;14565;48.626;8.978;2023-12-20T10:40:23;5.30;;;1.40;;
27025;SDS011;14565;48.626;8.978;2023-12-20T10:42:52;4.32;;;1.00;;
27025;SDS011;14565;48.626;8.978;2023-12-20T10:45:19;4.85;;;1.05;;
27025;SDS011;14565;48.626;8.978;2023-12-20T10:47:46;4.50;;;1.00;;
27025;SDS011;14565;48.626;8.978;2023-12-20T10:50:12;3.63;;;0.90;;
27025;SDS011;14565;48.626;8.978;2023-12-20T10:52:38;3.45;;;0.90;;
27025;SDS011;14565;48.626;8.978;2023-12-20T10:55:06;5.97;;;1.08;;
27025;SDS011;14565;48.626;8.978;2023-12-20T10:57:32;2.38;;;0.90;;
27025;SDS011;14565;48.626;8.978;2023-12-20T11:00:00;2.47;;;0.98;;
27025;SDS011;14565;48.626;8.978;2023-12-20T11:02:33;3.08;;;1.15;;
27025;SDS011;14565;48.626;8.978;2023-12-20T11:05:06;2.78;;;0.93;;
27025;SDS011;14565;48.626;8.978;2023-12-20T11:07:43;9.20;;;1.50;;
27025;SDS011;14565;48.626;8.978;2023-12-20T11:10:21;4.72;;;1.15;;
27025;SDS011;14565;48.626;8.978;2023-12-20T11:12:59;4.90;;;1.27;;
27025;SDS011;14565;48.626;8.978;2023-12-20T11:15:27;3.10;;;1.00;;
27025;SDS011;14565;48.626;8.978;2023-12-20T11:17:54;6.50;;;1.40;;
27025;SDS011;14565;48.626;8.978;2023-12-20T11:20:23;3.95;;;1.13;;
27025;SDS011;14565;48.626;8.978;2023-12-20T11:22:59;3.50;;;1.33;;
27025;SDS011;14565;48.626;8.978;2023-12-20T11:25:25;4.32;;;1.08;;
27025;SDS011;14565;48.626;8.978;2023-12-20T11:28:08;2.20;;;0.80;;
27025;SDS011;14565;48.626;8.978;2023-12-20T11:30:53;3.92;;;0.82;;
27025;SDS011;14565;48.626;8.978;2023-12-20T11:33:38;5.97;;;1.50;;
27025;SDS011;14565;48.626;8.978;2023-12-20T11:36:12;3.67;;;1.20;;
27025;SDS011;14565;48.626;8.978;2023-12-20T11:38:49;8.15;;;1.25;;
27025;SDS011;14565;48.626;8.978;2023-12-20T11:41:26;5.00;;;1.23;;
27025;SDS011;14565;48.626;8.978;2023-12-20T11:43:55;6.50;;;1.15;;
27025;SDS011;14565;48.626;8.978;2023-12-20T11:46:21;7.28;;;1.52;;
27025;SDS011;14565;48.626;8.978;2023-12-20T11:48:47;2.95;;;0.75;;
27025;SDS011;14565;48.626;8.978;2023-12-20T11:51:13;5.10;;;0.82;;
27025;SDS011;14565;48.626;8.978;2023-12-20T11:53:40;3.88;;;1.00;;
27025;SDS011;14565;48.626;8.978;2023-12-20T11:56:07;7.10;;;1.10;;
27025;SDS011;14565;48.626;8.978;2023-12-20T11:58:35;6.85;;;1.52;;
27025;SDS011;14565;48.626;8.978;2023-12-20T12:01:02;3.70;;;1.13;;
27025;SDS011;14565;48.626;8.978;2023-12-20T12:03:29;6.22;;;1.17;;
27025;SDS011;14565;48.626;8.978;2023-12-20T12:05:55;11.57;;;2.80;;
27025;SDS011;14565;48.626;8.978;2023-12-20T12:08:21;5.47;;;1.30;;
27025;SDS011;14565;48.626;8.978;2023-12-20T12:10:47;3.75;;;1.10;;
27025;SDS011;14565;48.626;8.978;2023-12-20T12:13:13;6.88;;;1.25;;
27025;SDS011;14565;48.626;8.978;2023-12-20T12:15:42;7.50;;;1.25;;
27025;SDS011;14565;48.626;8.978;2023-12-20T12:18:09;6.13;;;1.30;;
27025;SDS011;14565;48.626;8.978;2023-12-20T12:20:35;7.68;;;1.70;;
27025;SDS011;14565;48.626;8.978;2023-12-20T12:23:03;6.80;;;1.50;;
27025;SDS011;14565;48.626;8.978;2023-12-20T12:25:31;4.05;;;1.23;;
27025;SDS011;14565;48.626;8.978;2023-12-20T12:27:58;6.53;;;1.77;;
27025;SDS011;14565;48.626;8.978;2023-12-20T12:30:24;9.85;;;3.08;;
27025;SDS011;14565;48.626;8.978;2023-12-20T12:32:51;5.53;;;2.33;;
27025;SDS011;14565;48.626;8.978;2023-12-20T12:35:17;9.15;;;2.13;;
27025;SDS011;14565;48.626;8.978;2023-12-20T12:37:44;11.55;;;2.28;;
27025;SDS011;14565;48.626;8.978;2023-12-20T12:40:10;4.97;;;1.70;;
27025;SDS011;14565;48.626;8.978;2023-12-20T12:42:40;7.95;;;2.38;;
27025;SDS011;14565;48.626;8.978;2023-12-20T12:45:07;4.30;;;1.50;;
27025;SDS011;14565;48.626;8.978;2023-12-20T12:47:34;8.13;;;2.35;;
27025;SDS011;14565;48.626;8.978;2023-12-20T12:50:00;4.82;;;1.27;;
27025;SDS011;14565;48.626;8.978;2023-12-20T12:52:26;4.65;;;1.13;;
27025;SDS011;14565;48.626;8.978;2023-12-20T12:54:52;2.50;;;1.02;;
27025;SDS011;14565;48.626;8.978;2023-12-20T12:57:18;5.05;;;1.40;;
27025;SDS011;14565;48.626;8.978;2023-12-20T12:59:45;3.92;;;0.90;;
27025;SDS011;14565;48.626;8.978;2023-12-20T13:02:14;6.18;;;1.20;;
27025;SDS011;14565;48.626;8.978;2023-12-20T13:04:40;3.40;;;1.05;;
27025;SDS011;14565;48.626;8.978;2023-12-20T13:07:07;5.85;;;1.45;;
27025;SDS011;14565;48.626;8.978;2023-12-20T13:09:35;9.85;;;1.17;;
27025;SDS011;14565;48.626;8.978;2023-12-20T13:12:01;6.07;;;1.70;;
27025;SDS011;14565;48.626;8.978;2023-12-20T13:14:28;6.43;;;3.17;;
27025;SDS011;14565;48.626;8.978;2023-12-20T13:16:55;4.50;;;0.93;;
27025;SDS011;14565;48.626;8.978;2023-12-20T13:19:21;5.32;;;1.60;;
27025;SDS011;14565;48.626;8.978;2023-12-20T13:21:47;3.85;;;1.45;;
27025;SDS011;14565;48.626;8.978;2023-12-20T13:24:13;6.35;;;1.17;;
27025;SDS011;14565;48.626;8.978;2023-12-20T13:26:39;7.03;;;1.65;;
27025;SDS011;14565;48.626;8.978;2023-12-20T13:29:05;6.38;;;1.00;;
27025;SDS011;14565;48.626;8.978;2023-12-20T13:31:30;4.88;;;0.80;;
27025;SDS011;14565;48.626;8.978;2023-12-20T13:33:56;8.20;;;1.20;;
27025;SDS011;14565;48.626;8.978;2023-12-20T13:36:22;5.60;;;2.42;;
27025;SDS011;14565;48.626;8.978;2023-12-20T13:38:47;6.32;;;1.55;;
27025;SDS011;14565;48.626;8.978;2023-12-20T13:41:13;6.13;;;1.45;;
27025;SDS011;14565;48.626;8.978;2023-12-20T13:43:38;6.05;;;1.52;;
27025;SDS011;14565;48.626;8.978;2023-12-20T13:46:04;7.03;;;1.70;;
27025;SDS011;14565;48.626;8.978;2023-12-20T13:48:30;4.68;;;1.17;;
27025;SDS011;14565;48.626;8.978;2023-12-20T13:50:56;6.07;;;1.30;;
27025;SDS011;14565;48.626;8.978;2023-12-20T13:53:21;7.15;;;1.75;;
27025;SDS011;14565;48.626;8.978;2023-12-20T13:55:47;9.18;;;3.13;;
27025;SDS011;14565;48.626;8.978;2023-12-20T13:58:13;6.45;;;2.20;;
27025;SDS011;14565;48.626;8.978;2023-12-20T14:00:38;4.05;;;1.70;;
27025;SDS011;14565;48.626;8.978;2023-12-20T14:03:05;8.00;;;1.55;;
27025;SDS011;14565;48.626;8.978;2023-12-20T14:05:30;3.15;;;1.20;;
27025;SDS011;14565;48.626;8.978;2023-12-20T14:07:56;5.47;;;1.15;;
27025;SDS011;14565;48.626;8.978;2023-12-20T14:10:25;7.68;;;1.08;;
27025;SDS011;14565;48.626;8.978;2023-12-20T14:12:54;2.95;;;0.90;;
27025;SDS011;14565;48.626;8.978;2023-12-20T14:15:20;5.50;;;0.88;;
27025;SDS011;14565;48.626;8.978;2023-12-20T14:17:45;3.22;;;1.25;;
27025;SDS011;14565;48.626;8.978;2023-12-20T14:20:11;5.80;;;1.27;;
27025;SDS011;14565;48.626;8.978;2023-12-20T14:22:38;6.70;;;1.17;;
27025;SDS011;14565;48.626;8.978;2023-12-20T14:25:04;6.38;;;1.70;;
27025;SDS011;14565;48.626;8.978;2023-12-20T14:27:31;5.23;;;2.23;;
27025;SDS011;14565;48.626;8.978;2023-12-20T14:29:57;4.18;;;0.98;;
27025;SDS011;14565;48.626;8.978;2023-12-20T14:32:23;5.80;;;1.58;;
27025;SDS011;14565;48.626;8.978;2023-12-20T14:34:49;4.20;;;1.10;;
27025;SDS011;14565;48.626;8.978;2023-12-20T14:37:15;3.38;;;1.05;;
27025;SDS011;14565;48.626;8.978;2023-12-20T14:39:42;3.00;;;1.05;;
27025;SDS011;14565;48.626;8.978;2023-12-20T14:42:07;3.03;;;1.10;;
27025;SDS011;14565;48.626;8.978;2023-12-20T14:44:37;9.25;;;1.52;;